createdAt,value
2019-02-22T00:01:29.573Z,7.70
2019-02-22T00:03:58.250Z,7.80
2019-02-22T00:06:27.302Z,7.80
2019-02-22T00:12:24.907Z,7.80
2019-02-22T00:14:53.379Z,7.80
2019-02-22T00:21:03.552Z,7.80
2019-02-22T00:23:31.992Z,7.80
2019-02-22T00:29:29.800Z,7.80
2019-02-22T01:31:03.675Z,7.90
2019-02-22T01:37:00.599Z,7.80
2019-02-22T01:39:29.067Z,7.80
2019-02-22T01:45:38.827Z,7.90
2019-02-22T01:48:07.546Z,7.90
2019-02-22T01:50:36.065Z,7.90
2019-02-22T01:53:04.978Z,7.90
2019-02-22T01:55:33.415Z,7.90
2019-02-22T01:58:02.125Z,7.90
2019-02-22T02:00:30.612Z,7.90
2019-02-22T02:02:59.138Z,7.90
2019-02-22T02:05:27.814Z,7.80
2019-02-22T02:07:56.658Z,7.80
2019-02-22T02:10:25.328Z,7.70
2019-02-22T02:12:53.918Z,7.80
2019-02-22T02:15:22.428Z,7.80
2019-02-22T02:17:51.206Z,7.80
2019-02-22T02:20:19.699Z,7.80
2019-02-22T02:22:48.493Z,7.80
2019-02-22T02:25:16.938Z,7.80
2019-02-22T02:31:14.633Z,7.80
2019-02-22T02:33:43.100Z,7.70
2019-02-22T02:36:11.781Z,7.80
2019-02-22T02:38:40.234Z,7.80
2019-02-22T02:41:11.504Z,7.80
2019-02-22T02:47:20.577Z,7.80
2019-02-22T02:49:49.007Z,7.80
2019-02-22T02:55:46.372Z,7.80
2019-02-22T02:58:15.160Z,7.80
2019-02-22T03:00:43.964Z,7.80
2019-02-22T03:03:12.615Z,7.60
2019-02-22T03:05:42.723Z,7.60
2019-02-22T03:08:11.338Z,7.60
2019-02-22T03:14:08.129Z,7.60
2019-02-22T03:16:36.636Z,7.60
2019-02-22T03:19:05.114Z,7.50
2019-02-22T03:25:14.992Z,7.50
2019-02-22T03:27:43.508Z,7.60
2019-02-22T03:33:40.491Z,7.60
2019-02-22T03:36:09.072Z,7.60
2019-02-22T03:42:18.566Z,7.50
2019-02-22T03:44:47.018Z,7.50
2019-02-22T03:47:15.454Z,7.50
2019-02-22T03:49:44.418Z,7.50
2019-02-22T03:55:53.699Z,7.60
2019-02-22T03:58:22.302Z,7.60
2019-02-22T04:00:51.223Z,7.50
2019-02-22T04:03:19.789Z,7.60
2019-02-22T04:05:48.504Z,7.60
2019-02-22T04:08:16.949Z,7.50
2019-02-22T04:10:45.642Z,7.50
2019-02-22T04:13:14.128Z,7.50
2019-02-22T04:18:46.718Z,7.60
2019-02-22T04:21:15.165Z,7.60
2019-02-22T04:23:43.608Z,7.60
2019-02-22T04:26:12.276Z,7.50
2019-02-22T04:28:40.988Z,7.60
2019-02-22T04:31:09.427Z,7.60
2019-02-22T04:33:37.890Z,7.60
2019-02-22T04:39:35.077Z,7.60
2019-02-22T04:42:03.588Z,7.60
2019-02-22T04:44:32.055Z,7.60
2019-02-22T04:50:29.639Z,7.70
2019-02-22T04:52:58.122Z,7.70
2019-02-22T04:59:08.020Z,7.60
2019-02-22T05:01:36.717Z,7.60
2019-02-22T05:04:05.331Z,7.60
2019-02-22T05:06:35.088Z,7.60
2019-02-22T05:12:44.620Z,7.70
2019-02-22T05:15:13.170Z,7.70
2019-02-22T05:17:41.918Z,7.70
2019-02-22T05:23:40.224Z,7.70
2019-02-22T05:26:08.697Z,7.60
2019-02-22T05:28:37.215Z,7.70
2019-02-22T05:31:05.986Z,7.70
2019-02-22T05:33:34.623Z,7.70
2019-02-22T05:36:03.046Z,7.70
2019-02-22T05:42:00.054Z,7.70
2019-02-22T05:47:56.690Z,7.70
2019-02-22T05:50:25.382Z,7.60
2019-02-22T05:56:35.241Z,7.70
2019-02-22T05:59:03.680Z,7.60
2019-02-22T06:01:32.179Z,7.70
2019-02-22T06:07:04.883Z,7.60
2019-02-22T06:13:01.782Z,7.70
2019-02-22T06:15:31.546Z,7.70
2019-02-22T06:21:28.977Z,7.80
2019-02-22T06:23:57.462Z,7.80
2019-02-22T06:30:09.924Z,7.80
2019-02-22T06:32:38.420Z,7.80
2019-02-22T06:35:08.967Z,7.80
2019-02-22T06:37:37.838Z,7.80
2019-02-22T06:40:08.782Z,7.80
2019-02-22T06:46:05.879Z,7.90
2019-02-22T06:52:03.496Z,7.90
2019-02-22T06:54:32.616Z,7.90
2019-02-22T07:00:43.183Z,7.90
2019-02-22T07:06:52.516Z,7.90
2019-02-22T07:09:20.964Z,8.00
2019-02-22T07:11:54.171Z,8.00
2019-02-22T07:14:22.909Z,8.00
2019-02-22T07:16:51.351Z,8.10
2019-02-22T07:19:19.787Z,8.10
2019-02-22T07:21:52.708Z,8.10
2019-02-22T07:24:18.799Z,8.10
2019-02-22T07:26:47.311Z,8.10
2019-02-22T07:29:15.968Z,8.20
2019-02-22T07:35:25.397Z,8.20
2019-02-22T07:41:35.282Z,8.20
2019-02-22T07:44:04.090Z,8.30
2019-02-22T07:46:32.522Z,8.30
2019-02-22T07:49:01.391Z,8.40
2019-02-22T07:51:30.071Z,8.40
2019-02-22T07:53:58.563Z,8.40
2019-02-22T07:56:27.030Z,8.50
2019-02-22T08:02:36.632Z,8.60
2019-02-22T08:05:05.855Z,8.60
2019-02-22T08:07:34.362Z,8.60
2019-02-22T08:13:31.847Z,8.70
2019-02-22T08:19:28.651Z,8.80
2019-02-22T08:21:57.289Z,8.60
2019-02-22T08:28:07.089Z,8.60
2019-02-22T08:30:35.831Z,8.60
2019-02-22T08:33:04.590Z,8.70
2019-02-22T08:39:01.923Z,8.70
2019-02-22T08:41:30.506Z,8.80
2019-02-22T08:43:58.942Z,9.00
2019-02-22T08:46:27.552Z,9.10
2019-02-22T08:48:56.388Z,9.10
2019-02-22T08:51:24.863Z,9.20
2019-02-22T08:53:53.295Z,9.30
2019-02-22T08:56:21.767Z,9.40
2019-02-22T08:58:50.556Z,9.50
2019-02-22T09:04:48.275Z,9.60
2019-02-22T09:07:16.911Z,9.60
2019-02-22T09:09:45.347Z,9.70
2019-02-22T09:12:13.955Z,9.70
2019-02-22T09:14:42.426Z,9.80
2019-02-22T09:17:10.871Z,9.90
2019-02-22T09:19:39.312Z,9.90
2019-02-22T09:22:07.951Z,10.00
2019-02-22T09:24:36.392Z,10.10
2019-02-22T09:27:05.115Z,10.10
2019-02-22T09:29:33.740Z,10.10
2019-02-22T09:35:43.691Z,10.20
2019-02-22T09:38:12.941Z,10.30
2019-02-22T09:40:41.715Z,10.40
2019-02-22T09:46:39.595Z,10.40
2019-02-22T09:52:36.688Z,10.50
2019-02-22T09:58:33.342Z,10.60
2019-02-22T10:01:01.816Z,10.60
2019-02-22T10:07:11.520Z,10.60
2019-02-22T10:09:40.597Z,10.60
2019-02-22T10:12:09.247Z,10.60
2019-02-22T10:14:37.994Z,10.60
2019-02-22T10:17:06.832Z,10.50
2019-02-22T10:23:04.222Z,10.50
2019-02-22T10:25:32.768Z,10.70
2019-02-22T10:28:01.487Z,10.70
2019-02-22T10:30:29.926Z,10.70
2019-02-22T10:32:58.385Z,10.70
2019-02-22T10:35:27.163Z,10.90
2019-02-22T10:37:55.911Z,10.90
2019-02-22T10:40:24.353Z,10.90
2019-02-22T10:42:52.858Z,11.00
2019-02-22T10:49:03.197Z,11.20
2019-02-22T10:51:34.065Z,11.10
2019-02-22T10:54:01.942Z,11.20
2019-02-22T10:56:30.415Z,11.30
2019-02-22T10:58:58.862Z,11.30
2019-02-22T11:01:27.311Z,11.30
2019-02-22T11:03:55.791Z,11.30
2019-02-22T11:10:11.085Z,11.40
2019-02-22T11:12:39.535Z,11.50
2019-02-22T11:15:10.309Z,11.60
2019-02-22T11:21:07.199Z,11.60
2019-02-22T11:23:35.666Z,11.60
2019-02-22T11:26:04.287Z,11.70
2019-02-22T11:32:01.733Z,11.70
2019-02-22T11:34:30.450Z,11.80
2019-02-22T11:36:58.890Z,11.80
2019-02-22T11:39:27.346Z,11.90
2019-02-22T11:41:56.982Z,11.90
2019-02-22T11:44:25.763Z,11.80
2019-02-22T11:46:54.566Z,11.80
2019-02-22T11:49:25.802Z,11.90
2019-02-22T11:51:56.000Z,11.90
2019-02-22T11:57:54.254Z,12.10
2019-02-22T12:00:26.271Z,12.20
2019-02-22T12:02:55.182Z,12.20
2019-02-22T12:05:23.695Z,12.30
2019-02-22T12:07:52.640Z,12.30
2019-02-22T12:10:21.398Z,12.40
2019-02-22T12:12:50.280Z,12.30
2019-02-22T12:18:48.173Z,12.20
2019-02-22T12:24:45.888Z,12.30
2019-02-22T12:27:15.160Z,12.40
2019-02-22T12:29:43.610Z,12.40
2019-02-22T12:35:41.270Z,12.40
2019-02-22T12:38:09.896Z,12.40
2019-02-22T12:44:07.122Z,12.30
2019-02-22T12:46:35.874Z,12.30
2019-02-22T12:49:04.316Z,12.30
2019-02-22T12:55:02.505Z,12.30
2019-02-22T12:57:30.954Z,12.20
2019-02-22T12:59:59.476Z,12.20
2019-02-22T13:02:28.140Z,12.20
2019-02-22T13:04:56.919Z,12.20
2019-02-22T13:07:25.362Z,12.20
2019-02-22T13:09:53.826Z,12.20
2019-02-22T13:12:22.263Z,12.30
2019-02-22T13:14:50.835Z,12.30
2019-02-22T13:17:30.228Z,12.30
2019-02-22T13:23:30.768Z,12.20
2019-02-22T13:25:59.215Z,12.20
2019-02-22T13:28:27.661Z,12.30
2019-02-22T13:30:56.120Z,12.20
2019-02-22T13:33:24.561Z,12.30
2019-02-22T13:35:53.001Z,12.30
2019-02-22T13:38:21.828Z,12.40
2019-02-22T13:40:50.263Z,12.40
2019-02-22T13:43:18.707Z,12.50
2019-02-22T13:45:47.202Z,12.40
2019-02-22T13:48:15.715Z,12.40
2019-02-22T13:50:44.163Z,12.50
2019-02-22T13:53:12.666Z,12.40
2019-02-22T13:55:41.098Z,12.50
2019-02-22T13:58:09.540Z,12.50
2019-02-22T14:00:38.309Z,12.50
2019-02-22T14:03:06.751Z,12.50
2019-02-22T14:05:35.175Z,12.50
2019-02-22T14:08:03.658Z,12.50
2019-02-22T14:14:13.718Z,12.50
2019-02-22T14:16:42.163Z,12.50
2019-02-22T14:19:10.674Z,12.50
2019-02-22T14:21:39.297Z,12.40
2019-02-22T14:24:08.039Z,12.50
2019-02-22T14:26:36.836Z,12.40
2019-02-22T14:32:34.282Z,12.50
2019-02-22T14:38:31.107Z,12.80
2019-02-22T14:44:27.868Z,12.60
2019-02-22T14:46:56.509Z,12.50
2019-02-22T14:53:06.222Z,12.30
2019-02-22T14:55:34.669Z,12.10
2019-02-22T15:01:31.515Z,11.80
2019-02-22T15:07:28.123Z,11.50
2019-02-22T15:09:58.918Z,11.30
2019-02-22T15:12:26.784Z,11.30
2019-02-22T15:14:55.236Z,11.30
2019-02-22T15:20:52.614Z,11.20
2019-02-22T15:26:49.398Z,11.10
2019-02-22T15:32:46.943Z,11.10
2019-02-22T15:35:17.256Z,11.10
2019-02-22T15:37:45.776Z,11.10
2019-02-22T15:40:15.159Z,11.10
2019-02-22T15:42:43.798Z,11.10
2019-02-22T15:48:53.234Z,11.10
2019-02-22T15:51:21.670Z,11.00
2019-02-22T15:57:19.743Z,11.00
2019-02-22T15:59:48.215Z,11.00
2019-02-22T16:05:57.996Z,11.00
2019-02-22T16:08:26.441Z,10.90
2019-02-22T16:10:54.887Z,10.90
2019-02-22T16:16:52.254Z,10.80
2019-02-22T16:22:51.525Z,10.80
2019-02-22T16:25:20.454Z,10.80
2019-02-22T16:27:48.960Z,10.80
2019-02-22T16:33:45.915Z,10.70
2019-02-22T16:39:42.614Z,10.60
2019-02-22T16:42:14.178Z,10.60
2019-02-22T16:48:23.930Z,10.50
2019-02-22T16:50:52.375Z,10.40
2019-02-22T16:56:51.770Z,10.30
2019-02-22T16:59:20.363Z,10.20
2019-02-22T17:05:29.648Z,10.00
2019-02-22T17:11:39.226Z,9.90
2019-02-22T17:14:07.982Z,9.90
2019-02-22T17:16:45.447Z,9.90
2019-02-22T17:22:36.484Z,9.90
2019-02-22T17:28:33.845Z,9.90
2019-02-22T17:31:02.624Z,9.90
2019-02-22T17:37:11.946Z,9.80
2019-02-22T17:39:40.385Z,9.80
2019-02-22T17:42:08.818Z,9.80
2019-02-22T17:44:37.316Z,9.80
2019-02-22T17:47:06.602Z,9.70
2019-02-22T17:53:04.022Z,9.60
2019-02-22T17:55:32.848Z,9.50
2019-02-22T17:58:01.279Z,9.40
2019-02-22T18:00:29.724Z,9.30
2019-02-22T18:02:58.279Z,9.30
2019-02-22T18:05:26.722Z,9.20
2019-02-22T18:11:23.752Z,9.00
2019-02-22T18:13:52.238Z,8.90
2019-02-22T18:16:20.704Z,8.90
2019-02-22T18:18:49.495Z,8.80
2019-02-22T18:21:17.931Z,8.70
2019-02-22T18:23:46.531Z,8.70
2019-02-22T18:26:15.026Z,8.60
2019-02-22T18:28:43.534Z,8.50
2019-02-22T18:34:40.295Z,8.50
2019-02-22T18:37:08.766Z,8.50
2019-02-22T18:39:37.278Z,8.40
2019-02-22T18:42:05.787Z,8.40
2019-02-22T18:48:02.879Z,8.20
2019-02-22T18:50:31.428Z,8.20
2019-02-22T18:56:41.213Z,8.10
2019-02-22T18:59:09.729Z,8.00
2019-02-22T19:04:43.335Z,7.90
2019-02-22T19:07:11.859Z,7.80
2019-02-22T19:09:40.299Z,7.80
2019-02-22T19:12:08.734Z,7.80
2019-02-22T19:14:37.194Z,7.80
2019-02-22T19:20:48.021Z,7.70
2019-02-22T19:23:16.761Z,7.70
2019-02-22T19:29:13.842Z,7.60
2019-02-22T19:31:42.608Z,7.50
2019-02-22T19:34:11.102Z,7.40
2019-02-22T19:36:39.599Z,7.40
2019-02-22T19:39:08.405Z,7.30
2019-02-22T19:41:36.870Z,7.30
2019-02-22T19:44:05.374Z,7.20
2019-02-22T19:50:02.901Z,7.20
2019-02-22T19:56:00.524Z,7.20
2019-02-22T19:58:28.999Z,7.10
2019-02-22T20:00:57.436Z,7.10
2019-02-22T20:03:26.820Z,7.10
2019-02-22T20:09:00.090Z,7.00
2019-02-22T20:11:28.554Z,7.00
2019-02-22T20:13:57.087Z,7.00
2019-02-22T20:16:25.522Z,7.00
2019-02-22T20:18:53.980Z,7.00
2019-02-22T20:21:22.411Z,7.00
2019-02-22T20:27:19.692Z,7.00
2019-02-22T20:29:48.172Z,7.00
2019-02-22T20:32:16.617Z,7.10
2019-02-22T20:34:45.058Z,7.10
2019-02-22T20:37:13.657Z,7.30
2019-02-22T20:39:42.253Z,7.30
2019-02-22T20:42:10.690Z,7.60
2019-02-22T20:44:39.472Z,7.60
2019-02-22T20:50:49.099Z,7.80
2019-02-22T20:53:17.530Z,7.80
2019-02-22T20:55:46.025Z,7.90
2019-02-22T20:58:14.812Z,7.90
2019-02-22T21:00:43.270Z,7.90
2019-02-22T21:03:11.694Z,7.90
2019-02-22T21:05:40.554Z,7.80
2019-02-22T21:08:09.336Z,7.80
2019-02-22T21:14:06.940Z,7.80
2019-02-22T21:16:35.438Z,7.80
2019-02-22T21:19:03.873Z,7.80
2019-02-22T21:21:33.861Z,7.80
2019-02-22T21:24:02.570Z,7.80
2019-02-22T21:26:31.021Z,7.80
2019-02-22T21:28:59.515Z,7.90
2019-02-22T21:31:29.343Z,7.80
2019-02-22T21:33:57.916Z,7.80
2019-02-22T21:36:26.349Z,7.70
2019-02-22T21:42:23.636Z,7.70
2019-02-22T21:44:52.341Z,7.80
2019-02-22T21:47:20.774Z,7.70
2019-02-22T21:49:49.207Z,7.70
2019-02-22T21:52:17.694Z,7.80
2019-02-22T21:54:46.167Z,7.80
2019-02-22T21:57:14.986Z,7.70
2019-02-22T21:59:43.459Z,7.80
2019-02-22T22:02:11.904Z,7.80
2019-02-22T22:04:40.351Z,7.70
2019-02-22T22:07:08.915Z,7.70
2019-02-22T22:13:18.552Z,7.70
2019-02-22T22:15:47.070Z,7.60
2019-02-22T22:18:15.515Z,7.60
2019-02-22T22:20:44.115Z,7.60
2019-02-22T22:23:12.901Z,7.60
2019-02-22T22:29:10.770Z,7.50
2019-02-22T22:31:39.297Z,7.50
2019-02-22T22:34:07.777Z,7.50
2019-02-22T22:36:36.226Z,7.60
2019-02-22T22:39:05.833Z,7.60
2019-02-22T22:41:34.315Z,7.60
2019-02-22T22:44:02.805Z,7.60
2019-02-22T22:50:00.100Z,7.50
2019-02-22T22:52:29.193Z,7.50
2019-02-22T22:55:00.121Z,7.50
2019-02-22T22:57:27.789Z,7.50
2019-02-22T22:59:56.596Z,7.40
2019-02-22T23:02:25.267Z,7.40
2019-02-22T23:04:53.728Z,7.40
2019-02-22T23:10:51.270Z,7.30
2019-02-22T23:13:19.750Z,7.30
2019-02-22T23:15:48.190Z,7.30
2019-02-22T23:18:16.952Z,7.30
2019-02-22T23:20:45.552Z,7.30
2019-02-22T23:23:14.119Z,7.30
2019-02-22T23:25:42.690Z,7.20
2019-02-22T23:28:11.158Z,7.20
2019-02-22T23:30:39.676Z,7.20
2019-02-22T23:33:08.459Z,7.10
2019-02-22T23:35:37.096Z,7.10
2019-02-22T23:38:05.531Z,7.00
2019-02-22T23:40:33.970Z,7.00
2019-02-22T23:43:02.451Z,7.00
2019-02-22T23:45:31.295Z,7.00
2019-02-22T23:47:59.730Z,7.00
2019-02-22T23:53:57.151Z,7.00
2019-02-22T23:56:25.636Z,7.00
2019-02-22T23:58:54.074Z,7.00
